sensor_id;sensor_type;location;lat;lon;timestamp;temperature;humidity
62581;DHT22;48640;48.770;9.148;2023-09-07T00:01:54;18.50;91.30
62581;DHT22;48640;48.770;9.148;2023-09-07T00:04:23;18.40;91.50
62581;DHT22;48640;48.770;9.148;2023-09-07T00:06:49;18.30;91.70
62581;DHT22;48640;48.770;9.148;2023-09-07T00:09:16;18.30;91.60
62581;DHT22;48640;48.770;9.148;2023-09-07T00:11:47;18.30;91.50
62581;DHT22;48640;48.770;9.148;2023-09-07T00:14:14;18.30;91.30
62581;DHT22;48640;48.770;9.148;2023-09-07T00:16:41;18.40;91.30
62581;DHT22;48640;48.770;9.148;2023-09-07T00:19:07;18.30;91.80
62581;DHT22;48640;48.770;9.148;2023-09-07T00:21:36;18.20;92.30
62581;DHT22;48640;48.770;9.148;2023-09-07T00:24:03;18.20;92.10
62581;DHT22;48640;48.770;9.148;2023-09-07T00:26:30;18.20;92.10
62581;DHT22;48640;48.770;9.148;2023-09-07T00:28:56;18.20;92.20
62581;DHT22;48640;48.770;9.148;2023-09-07T00:31:23;18.20;92.40
62581;DHT22;48640;48.770;9.148;2023-09-07T00:33:50;18.10;92.40
62581;DHT22;48640;48.770;9.148;2023-09-07T00:36:17;18.10;92.40
62581;DHT22;48640;48.770;9.148;2023-09-07T00:38:45;18.00;92.80
62581;DHT22;48640;48.770;9.148;2023-09-07T00:41:13;18.10;92.60
62581;DHT22;48640;48.770;9.148;2023-09-07T00:43:40;18.00;92.50
62581;DHT22;48640;48.770;9.148;2023-09-07T00:46:07;18.00;92.70
62581;DHT22;48640;48.770;9.148;2023-09-07T00:48:34;17.90;93.00
62581;DHT22;48640;48.770;9.148;2023-09-07T00:51:01;17.90;93.30
62581;DHT22;48640;48.770;9.148;2023-09-07T00:53:28;17.90;93.70
62581;DHT22;48640;48.770;9.148;2023-09-07T00:55:56;17.80;93.30
62581;DHT22;48640;48.770;9.148;2023-09-07T00:58:24;17.80;93.60
62581;DHT22;48640;48.770;9.148;2023-09-07T01:00:51;17.80;93.40
62581;DHT22;48640;48.770;9.148;2023-09-07T01:03:18;17.90;93.40
62581;DHT22;48640;48.770;9.148;2023-09-07T01:05:52;17.80;93.40
62581;DHT22;48640;48.770;9.148;2023-09-07T01:08:24;17.80;93.60
62581;DHT22;48640;48.770;9.148;2023-09-07T01:10:52;17.80;93.60
62581;DHT22;48640;48.770;9.148;2023-09-07T01:13:20;17.80;93.50
62581;DHT22;48640;48.770;9.148;2023-09-07T01:15:47;17.80;93.80
62581;DHT22;48640;48.770;9.148;2023-09-07T01:18:15;17.80;93.80
62581;DHT22;48640;48.770;9.148;2023-09-07T01:20:44;17.70;94.10
62581;DHT22;48640;48.770;9.148;2023-09-07T01:23:13;17.70;94.10
62581;DHT22;48640;48.770;9.148;2023-09-07T01:25:40;17.70;94.20
62581;DHT22;48640;48.770;9.148;2023-09-07T01:28:09;17.60;95.00
62581;DHT22;48640;48.770;9.148;2023-09-07T01:30:36;17.50;95.20
62581;DHT22;48640;48.770;9.148;2023-09-07T01:33:04;17.50;94.80
62581;DHT22;48640;48.770;9.148;2023-09-07T01:35:32;17.50;94.70
62581;DHT22;48640;48.770;9.148;2023-09-07T01:37:59;17.50;94.60
62581;DHT22;48640;48.770;9.148;2023-09-07T01:40:28;17.50;94.80
62581;DHT22;48640;48.770;9.148;2023-09-07T01:42:54;17.50;94.70
62581;DHT22;48640;48.770;9.148;2023-09-07T01:45:21;17.60;94.70
62581;DHT22;48640;48.770;9.148;2023-09-07T01:47:49;17.40;94.90
62581;DHT22;48640;48.770;9.148;2023-09-07T01:50:16;17.40;94.80
62581;DHT22;48640;48.770;9.148;2023-09-07T01:52:45;17.40;94.90
62581;DHT22;48640;48.770;9.148;2023-09-07T01:55:12;17.40;95.30
62581;DHT22;48640;48.770;9.148;2023-09-07T01:57:40;17.30;95.60
62581;DHT22;48640;48.770;9.148;2023-09-07T02:00:06;17.30;95.50
62581;DHT22;48640;48.770;9.148;2023-09-07T02:02:33;17.30;95.40
62581;DHT22;48640;48.770;9.148;2023-09-07T02:05:00;17.30;95.60
62581;DHT22;48640;48.770;9.148;2023-09-07T02:07:27;17.30;95.60
62581;DHT22;48640;48.770;9.148;2023-09-07T02:09:54;17.30;95.60
62581;DHT22;48640;48.770;9.148;2023-09-07T02:12:21;17.30;95.60
62581;DHT22;48640;48.770;9.148;2023-09-07T02:14:49;17.20;95.70
62581;DHT22;48640;48.770;9.148;2023-09-07T02:17:16;17.30;95.70
62581;DHT22;48640;48.770;9.148;2023-09-07T02:19:43;17.30;95.80
62581;DHT22;48640;48.770;9.148;2023-09-07T02:22:10;17.20;95.90
62581;DHT22;48640;48.770;9.148;2023-09-07T02:24:37;17.20;96.30
62581;DHT22;48640;48.770;9.148;2023-09-07T02:27:04;17.10;96.40
62581;DHT22;48640;48.770;9.148;2023-09-07T02:29:31;17.10;96.60
62581;DHT22;48640;48.770;9.148;2023-09-07T02:31:59;17.10;96.40
62581;DHT22;48640;48.770;9.148;2023-09-07T02:34:25;17.10;96.60
62581;DHT22;48640;48.770;9.148;2023-09-07T02:36:52;17.00;96.90
62581;DHT22;48640;48.770;9.148;2023-09-07T02:39:19;17.00;97.10
62581;DHT22;48640;48.770;9.148;2023-09-07T02:41:46;17.00;97.10
62581;DHT22;48640;48.770;9.148;2023-09-07T02:44:13;17.00;96.90
62581;DHT22;48640;48.770;9.148;2023-09-07T02:46:40;17.10;96.90
62581;DHT22;48640;48.770;9.148;2023-09-07T02:49:08;17.00;96.60
62581;DHT22;48640;48.770;9.148;2023-09-07T02:51:35;17.00;96.80
62581;DHT22;48640;48.770;9.148;2023-09-07T02:54:02;17.00;96.80
62581;DHT22;48640;48.770;9.148;2023-09-07T02:56:29;16.90;97.10
62581;DHT22;48640;48.770;9.148;2023-09-07T02:58:56;16.80;97.30
62581;DHT22;48640;48.770;9.148;2023-09-07T03:01:23;16.80;97.30
62581;DHT22;48640;48.770;9.148;2023-09-07T03:03:50;16.80;97.40
62581;DHT22;48640;48.770;9.148;2023-09-07T03:06:18;16.80;97.40
62581;DHT22;48640;48.770;9.148;2023-09-07T03:08:45;16.80;97.40
62581;DHT22;48640;48.770;9.148;2023-09-07T03:11:12;16.80;97.50
62581;DHT22;48640;48.770;9.148;2023-09-07T03:13:40;16.70;97.40
62581;DHT22;48640;48.770;9.148;2023-09-07T03:16:07;16.70;97.50
62581;DHT22;48640;48.770;9.148;2023-09-07T03:18:34;16.70;97.80
62581;DHT22;48640;48.770;9.148;2023-09-07T03:21:02;16.60;97.90
62581;DHT22;48640;48.770;9.148;2023-09-07T03:23:32;16.60;98.00
62581;DHT22;48640;48.770;9.148;2023-09-07T03:25:59;16.60;97.90
62581;DHT22;48640;48.770;9.148;2023-09-07T03:28:26;16.70;98.10
62581;DHT22;48640;48.770;9.148;2023-09-07T03:30:54;16.60;98.10
62581;DHT22;48640;48.770;9.148;2023-09-07T03:33:21;16.50;98.30
62581;DHT22;48640;48.770;9.148;2023-09-07T03:35:48;16.50;98.40
62581;DHT22;48640;48.770;9.148;2023-09-07T03:38:17;16.50;98.40
62581;DHT22;48640;48.770;9.148;2023-09-07T03:40:45;16.50;98.50
62581;DHT22;48640;48.770;9.148;2023-09-07T03:43:12;16.40;98.60
62581;DHT22;48640;48.770;9.148;2023-09-07T03:45:38;16.40;98.70
62581;DHT22;48640;48.770;9.148;2023-09-07T03:48:06;16.40;98.80
62581;DHT22;48640;48.770;9.148;2023-09-07T03:50:34;16.50;98.60
62581;DHT22;48640;48.770;9.148;2023-09-07T03:53:02;16.50;98.70
62581;DHT22;48640;48.770;9.148;2023-09-07T03:55:29;16.50;98.60
62581;DHT22;48640;48.770;9.148;2023-09-07T03:57:57;16.50;98.50
62581;DHT22;48640;48.770;9.148;2023-09-07T04:00:24;16.50;98.60
62581;DHT22;48640;48.770;9.148;2023-09-07T04:02:50;16.40;98.80
62581;DHT22;48640;48.770;9.148;2023-09-07T04:05:17;16.40;98.60
62581;DHT22;48640;48.770;9.148;2023-09-07T04:07:44;16.40;98.70
62581;DHT22;48640;48.770;9.148;2023-09-07T04:10:12;16.30;99.10
62581;DHT22;48640;48.770;9.148;2023-09-07T04:12:39;16.30;99.30
62581;DHT22;48640;48.770;9.148;2023-09-07T04:15:10;16.30;99.20
62581;DHT22;48640;48.770;9.148;2023-09-07T04:17:37;16.30;99.30
62581;DHT22;48640;48.770;9.148;2023-09-07T04:20:07;16.20;99.40
62581;DHT22;48640;48.770;9.148;2023-09-07T04:22:33;16.20;99.50
62581;DHT22;48640;48.770;9.148;2023-09-07T04:25:00;16.20;99.40
62581;DHT22;48640;48.770;9.148;2023-09-07T04:27:27;16.20;99.30
62581;DHT22;48640;48.770;9.148;2023-09-07T04:29:53;16.20;99.50
62581;DHT22;48640;48.770;9.148;2023-09-07T04:32:22;16.20;99.70
62581;DHT22;48640;48.770;9.148;2023-09-07T04:34:53;16.00;99.80
62581;DHT22;48640;48.770;9.148;2023-09-07T04:37:20;16.00;99.90
62581;DHT22;48640;48.770;9.148;2023-09-07T04:39:49;16.10;99.90
62581;DHT22;48640;48.770;9.148;2023-09-07T04:42:16;16.00;99.90
62581;DHT22;48640;48.770;9.148;2023-09-07T04:44:43;15.90;99.90
62581;DHT22;48640;48.770;9.148;2023-09-07T04:47:09;16.00;99.90
62581;DHT22;48640;48.770;9.148;2023-09-07T04:49:38;16.00;99.90
62581;DHT22;48640;48.770;9.148;2023-09-07T04:52:05;16.00;99.90
62581;DHT22;48640;48.770;9.148;2023-09-07T04:54:32;16.00;99.90
62581;DHT22;48640;48.770;9.148;2023-09-07T04:56:59;16.00;99.90
62581;DHT22;48640;48.770;9.148;2023-09-07T04:59:26;15.90;99.90
62581;DHT22;48640;48.770;9.148;2023-09-07T05:01:53;16.00;99.90
62581;DHT22;48640;48.770;9.148;2023-09-07T05:04:19;16.00;99.90
62581;DHT22;48640;48.770;9.148;2023-09-07T05:06:48;16.00;99.90
62581;DHT22;48640;48.770;9.148;2023-09-07T05:09:15;16.00;99.90
62581;DHT22;48640;48.770;9.148;2023-09-07T05:11:42;16.00;99.90
62581;DHT22;48640;48.770;9.148;2023-09-07T05:14:08;16.10;99.90
62581;DHT22;48640;48.770;9.148;2023-09-07T05:16:35;16.00;99.90
62581;DHT22;48640;48.770;9.148;2023-09-07T05:19:02;16.10;99.90
62581;DHT22;48640;48.770;9.148;2023-09-07T05:21:29;16.00;99.90
62581;DHT22;48640;48.770;9.148;2023-09-07T05:23:57;16.00;99.90
62581;DHT22;48640;48.770;9.148;2023-09-07T05:26:24;16.00;99.90
62581;DHT22;48640;48.770;9.148;2023-09-07T05:28:51;16.10;99.90
62581;DHT22;48640;48.770;9.148;2023-09-07T05:31:18;16.00;99.90
62581;DHT22;48640;48.770;9.148;2023-09-07T05:33:45;16.10;99.90
62581;DHT22;48640;48.770;9.148;2023-09-07T05:36:12;16.20;99.90
62581;DHT22;48640;48.770;9.148;2023-09-07T05:38:38;16.20;99.90
62581;DHT22;48640;48.770;9.148;2023-09-07T05:41:07;16.30;99.90
62581;DHT22;48640;48.770;9.148;2023-09-07T05:43:34;16.30;99.90
62581;DHT22;48640;48.770;9.148;2023-09-07T05:46:01;16.40;99.90
62581;DHT22;48640;48.770;9.148;2023-09-07T05:48:28;16.40;99.90
62581;DHT22;48640;48.770;9.148;2023-09-07T05:50:54;16.40;99.90
62581;DHT22;48640;48.770;9.148;2023-09-07T05:53:21;16.40;99.90
62581;DHT22;48640;48.770;9.148;2023-09-07T05:55:50;16.50;99.90
62581;DHT22;48640;48.770;9.148;2023-09-07T05:58:18;16.60;99.90
62581;DHT22;48640;48.770;9.148;2023-09-07T06:00:45;16.70;99.90
62581;DHT22;48640;48.770;9.148;2023-09-07T06:03:12;16.90;99.90
62581;DHT22;48640;48.770;9.148;2023-09-07T06:05:39;17.00;99.80
62581;DHT22;48640;48.770;9.148;2023-09-07T06:08:06;16.90;99.30
62581;DHT22;48640;48.770;9.148;2023-09-07T06:10:37;17.10;99.20
62581;DHT22;48640;48.770;9.148;2023-09-07T06:13:03;17.00;99.20
62581;DHT22;48640;48.770;9.148;2023-09-07T06:15:32;17.00;99.50
62581;DHT22;48640;48.770;9.148;2023-09-07T06:17:59;17.10;99.30
62581;DHT22;48640;48.770;9.148;2023-09-07T06:20:25;17.30;98.80
62581;DHT22;48640;48.770;9.148;2023-09-07T06:22:52;17.40;98.60
62581;DHT22;48640;48.770;9.148;2023-09-07T06:25:19;17.50;97.80
62581;DHT22;48640;48.770;9.148;2023-09-07T06:27:47;17.70;97.20
62581;DHT22;48640;48.770;9.148;2023-09-07T06:30:14;17.90;97.00
62581;DHT22;48640;48.770;9.148;2023-09-07T06:32:42;17.90;97.10
62581;DHT22;48640;48.770;9.148;2023-09-07T06:35:10;18.00;96.70
62581;DHT22;48640;48.770;9.148;2023-09-07T06:37:37;18.00;96.70
62581;DHT22;48640;48.770;9.148;2023-09-07T06:40:07;18.20;96.90
62581;DHT22;48640;48.770;9.148;2023-09-07T06:42:35;18.50;96.40
62581;DHT22;48640;48.770;9.148;2023-09-07T06:45:02;18.70;96.10
62581;DHT22;48640;48.770;9.148;2023-09-07T06:47:29;18.90;95.60
62581;DHT22;48640;48.770;9.148;2023-09-07T06:49:58;19.20;95.00
62581;DHT22;48640;48.770;9.148;2023-09-07T06:52:24;19.50;93.70
62581;DHT22;48640;48.770;9.148;2023-09-07T06:54:52;19.60;93.40
62581;DHT22;48640;48.770;9.148;2023-09-07T06:57:19;19.90;93.00
62581;DHT22;48640;48.770;9.148;2023-09-07T06:59:46;19.70;92.30
62581;DHT22;48640;48.770;9.148;2023-09-07T07:02:12;19.70;92.80
62581;DHT22;48640;48.770;9.148;2023-09-07T07:04:39;19.80;92.90
62581;DHT22;48640;48.770;9.148;2023-09-07T07:07:07;20.00;92.70
62581;DHT22;48640;48.770;9.148;2023-09-07T07:09:34;19.90;92.10
62581;DHT22;48640;48.770;9.148;2023-09-07T07:12:02;20.00;91.50
62581;DHT22;48640;48.770;9.148;2023-09-07T07:14:29;20.00;91.50
62581;DHT22;48640;48.770;9.148;2023-09-07T07:16:56;20.10;91.70
62581;DHT22;48640;48.770;9.148;2023-09-07T07:19:23;20.00;92.10
62581;DHT22;48640;48.770;9.148;2023-09-07T07:21:50;20.10;92.10
62581;DHT22;48640;48.770;9.148;2023-09-07T07:24:18;20.30;92.20
62581;DHT22;48640;48.770;9.148;2023-09-07T07:26:46;20.30;92.10
62581;DHT22;48640;48.770;9.148;2023-09-07T07:29:13;20.30;92.10
62581;DHT22;48640;48.770;9.148;2023-09-07T07:31:40;20.30;91.80
62581;DHT22;48640;48.770;9.148;2023-09-07T07:34:06;20.40;92.20
62581;DHT22;48640;48.770;9.148;2023-09-07T07:36:33;20.40;91.50
62581;DHT22;48640;48.770;9.148;2023-09-07T07:39:01;20.40;91.20
62581;DHT22;48640;48.770;9.148;2023-09-07T07:41:30;20.50;91.00
62581;DHT22;48640;48.770;9.148;2023-09-07T07:43:57;20.60;91.20
62581;DHT22;48640;48.770;9.148;2023-09-07T07:46:24;20.70;90.80
62581;DHT22;48640;48.770;9.148;2023-09-07T07:48:51;20.70;90.60
62581;DHT22;48640;48.770;9.148;2023-09-07T07:51:18;20.80;90.80
62581;DHT22;48640;48.770;9.148;2023-09-07T07:53:44;20.90;90.30
62581;DHT22;48640;48.770;9.148;2023-09-07T07:56:15;20.80;90.20
62581;DHT22;48640;48.770;9.148;2023-09-07T07:58:43;21.00;90.10
62581;DHT22;48640;48.770;9.148;2023-09-07T08:01:15;21.40;89.10
62581;DHT22;48640;48.770;9.148;2023-09-07T08:03:41;21.70;88.20
62581;DHT22;48640;48.770;9.148;2023-09-07T08:06:08;22.50;86.70
62581;DHT22;48640;48.770;9.148;2023-09-07T08:08:36;23.10;81.90
62581;DHT22;48640;48.770;9.148;2023-09-07T08:11:03;24.00;78.30
62581;DHT22;48640;48.770;9.148;2023-09-07T08:13:32;25.60;72.50
62581;DHT22;48640;48.770;9.148;2023-09-07T08:16:00;27.00;66.40
62581;DHT22;48640;48.770;9.148;2023-09-07T08:18:28;28.50;60.30
62581;DHT22;48640;48.770;9.148;2023-09-07T08:20:55;30.00;54.70
62581;DHT22;48640;48.770;9.148;2023-09-07T08:23:22;30.50;51.80
62581;DHT22;48640;48.770;9.148;2023-09-07T08:25:51;31.60;49.30
62581;DHT22;48640;48.770;9.148;2023-09-07T08:28:17;31.70;46.00
62581;DHT22;48640;48.770;9.148;2023-09-07T08:30:46;32.50;45.30
62581;DHT22;48640;48.770;9.148;2023-09-07T08:33:14;33.70;42.50
62581;DHT22;48640;48.770;9.148;2023-09-07T08:35:41;33.50;40.80
62581;DHT22;48640;48.770;9.148;2023-09-07T08:38:09;32.80;42.30
62581;DHT22;48640;48.770;9.148;2023-09-07T08:40:37;32.70;42.10
62581;DHT22;48640;48.770;9.148;2023-09-07T08:43:08;32.50;42.40
62581;DHT22;48640;48.770;9.148;2023-09-07T08:45:41;32.70;42.40
62581;DHT22;48640;48.770;9.148;2023-09-07T08:48:10;32.90;42.20
62581;DHT22;48640;48.770;9.148;2023-09-07T08:50:40;33.80;40.60
62581;DHT22;48640;48.770;9.148;2023-09-07T08:53:08;33.90;39.50
62581;DHT22;48640;48.770;9.148;2023-09-07T08:55:35;34.50;39.20
62581;DHT22;48640;48.770;9.148;2023-09-07T08:58:03;34.80;38.80
62581;DHT22;48640;48.770;9.148;2023-09-07T09:00:29;36.10;36.80
62581;DHT22;48640;48.770;9.148;2023-09-07T09:02:56;36.60;35.10
62581;DHT22;48640;48.770;9.148;2023-09-07T09:05:24;36.60;35.10
62581;DHT22;48640;48.770;9.148;2023-09-07T09:08:02;36.80;34.60
62581;DHT22;48640;48.770;9.148;2023-09-07T09:10:29;36.30;35.20
62581;DHT22;48640;48.770;9.148;2023-09-07T09:12:56;35.80;35.20
62581;DHT22;48640;48.770;9.148;2023-09-07T09:15:25;35.90;35.40
62581;DHT22;48640;48.770;9.148;2023-09-07T09:17:52;36.40;35.80
62581;DHT22;48640;48.770;9.148;2023-09-07T09:20:23;37.10;34.30
62581;DHT22;48640;48.770;9.148;2023-09-07T09:22:52;37.00;32.80
62581;DHT22;48640;48.770;9.148;2023-09-07T09:25:22;36.90;34.60
62581;DHT22;48640;48.770;9.148;2023-09-07T09:27:49;37.80;32.40
62581;DHT22;48640;48.770;9.148;2023-09-07T09:30:15;38.20;31.70
62581;DHT22;48640;48.770;9.148;2023-09-07T09:32:43;37.40;32.60
62581;DHT22;48640;48.770;9.148;2023-09-07T09:35:10;36.60;33.60
62581;DHT22;48640;48.770;9.148;2023-09-07T09:37:44;36.40;35.20
62581;DHT22;48640;48.770;9.148;2023-09-07T09:40:13;36.80;34.10
62581;DHT22;48640;48.770;9.148;2023-09-07T09:42:42;37.50;32.90
62581;DHT22;48640;48.770;9.148;2023-09-07T09:45:11;37.80;32.60
62581;DHT22;48640;48.770;9.148;2023-09-07T09:47:39;37.80;32.40
62581;DHT22;48640;48.770;9.148;2023-09-07T09:50:07;37.50;33.00
62581;DHT22;48640;48.770;9.148;2023-09-07T09:52:35;37.40;32.90
62581;DHT22;48640;48.770;9.148;2023-09-07T09:55:04;36.90;34.00
62581;DHT22;48640;48.770;9.148;2023-09-07T09:57:34;36.90;34.10
62581;DHT22;48640;48.770;9.148;2023-09-07T10:00:03;37.00;34.00
62581;DHT22;48640;48.770;9.148;2023-09-07T10:02:47;37.50;33.10
62581;DHT22;48640;48.770;9.148;2023-09-07T10:05:16;37.80;32.90
62581;DHT22;48640;48.770;9.148;2023-09-07T10:07:45;37.40;32.80
62581;DHT22;48640;48.770;9.148;2023-09-07T10:10:14;37.40;33.00
62581;DHT22;48640;48.770;9.148;2023-09-07T10:12:42;36.70;33.70
62581;DHT22;48640;48.770;9.148;2023-09-07T10:15:22;35.70;35.80
62581;DHT22;48640;48.770;9.148;2023-09-07T10:17:50;35.20;37.00
62581;DHT22;48640;48.770;9.148;2023-09-07T10:20:18;35.90;36.80
62581;DHT22;48640;48.770;9.148;2023-09-07T10:22:46;36.10;35.70
62581;DHT22;48640;48.770;9.148;2023-09-07T10:25:20;36.50;35.00
62581;DHT22;48640;48.770;9.148;2023-09-07T10:27:49;36.20;35.20
62581;DHT22;48640;48.770;9.148;2023-09-07T10:30:16;37.00;34.10
62581;DHT22;48640;48.770;9.148;2023-09-07T10:32:50;36.80;34.00
62581;DHT22;48640;48.770;9.148;2023-09-07T10:35:19;36.00;35.60
62581;DHT22;48640;48.770;9.148;2023-09-07T10:37:47;36.50;35.00
62581;DHT22;48640;48.770;9.148;2023-09-07T10:40:19;36.90;34.10
62581;DHT22;48640;48.770;9.148;2023-09-07T10:42:46;36.30;35.10
62581;DHT22;48640;48.770;9.148;2023-09-07T10:45:15;35.80;36.20
62581;DHT22;48640;48.770;9.148;2023-09-07T10:47:43;36.10;36.00
62581;DHT22;48640;48.770;9.148;2023-09-07T10:50:12;35.80;35.90
62581;DHT22;48640;48.770;9.148;2023-09-07T10:52:39;36.40;36.30
62581;DHT22;48640;48.770;9.148;2023-09-07T10:55:08;37.10;34.70
62581;DHT22;48640;48.770;9.148;2023-09-07T10:57:42;37.10;35.30
62581;DHT22;48640;48.770;9.148;2023-09-07T11:00:11;36.80;35.20
62581;DHT22;48640;48.770;9.148;2023-09-07T11:02:39;36.70;34.50
62581;DHT22;48640;48.770;9.148;2023-09-07T11:05:08;37.60;34.40
62581;DHT22;48640;48.770;9.148;2023-09-07T11:07:37;36.90;34.40
62581;DHT22;48640;48.770;9.148;2023-09-07T11:10:11;37.10;34.00
62581;DHT22;48640;48.770;9.148;2023-09-07T11:12:39;36.60;35.50
62581;DHT22;48640;48.770;9.148;2023-09-07T11:15:09;36.10;36.40
62581;DHT22;48640;48.770;9.148;2023-09-07T11:17:37;36.50;35.20
62581;DHT22;48640;48.770;9.148;2023-09-07T11:20:06;35.30;36.40
62581;DHT22;48640;48.770;9.148;2023-09-07T11:22:37;34.70;38.20
62581;DHT22;48640;48.770;9.148;2023-09-07T11:25:07;35.10;37.90
62581;DHT22;48640;48.770;9.148;2023-09-07T11:27:35;34.90;38.10
62581;DHT22;48640;48.770;9.148;2023-09-07T11:30:02;34.90;37.30
62581;DHT22;48640;48.770;9.148;2023-09-07T11:32:33;34.80;38.00
62581;DHT22;48640;48.770;9.148;2023-09-07T11:35:01;35.40;37.80
62581;DHT22;48640;48.770;9.148;2023-09-07T11:37:27;35.40;37.90
62581;DHT22;48640;48.770;9.148;2023-09-07T11:39:57;36.00;37.00
62581;DHT22;48640;48.770;9.148;2023-09-07T11:42:24;36.00;37.10
62581;DHT22;48640;48.770;9.148;2023-09-07T11:44:51;35.20;37.80
62581;DHT22;48640;48.770;9.148;2023-09-07T11:47:17;35.60;38.10
62581;DHT22;48640;48.770;9.148;2023-09-07T11:49:44;35.70;38.20
62581;DHT22;48640;48.770;9.148;2023-09-07T11:52:11;36.40;35.90
62581;DHT22;48640;48.770;9.148;2023-09-07T11:54:38;35.80;37.10
62581;DHT22;48640;48.770;9.148;2023-09-07T11:57:06;35.20;38.40
62581;DHT22;48640;48.770;9.148;2023-09-07T11:59:34;35.00;38.30
62581;DHT22;48640;48.770;9.148;2023-09-07T12:02:02;34.90;37.50
62581;DHT22;48640;48.770;9.148;2023-09-07T12:04:29;34.60;38.40
62581;DHT22;48640;48.770;9.148;2023-09-07T12:06:56;34.30;39.10
62581;DHT22;48640;48.770;9.148;2023-09-07T12:09:23;33.60;40.00
62581;DHT22;48640;48.770;9.148;2023-09-07T12:11:49;33.30;41.40
62581;DHT22;48640;48.770;9.148;2023-09-07T12:14:18;33.20;40.80
62581;DHT22;48640;48.770;9.148;2023-09-07T12:16:45;33.00;41.80
62581;DHT22;48640;48.770;9.148;2023-09-07T12:19:12;32.90;42.00
62581;DHT22;48640;48.770;9.148;2023-09-07T12:21:39;33.40;41.30
62581;DHT22;48640;48.770;9.148;2023-09-07T12:24:08;33.80;40.40
62581;DHT22;48640;48.770;9.148;2023-09-07T12:26:35;33.90;40.60
62581;DHT22;48640;48.770;9.148;2023-09-07T12:29:02;33.70;42.20
62581;DHT22;48640;48.770;9.148;2023-09-07T12:31:31;33.80;40.50
62581;DHT22;48640;48.770;9.148;2023-09-07T12:33:58;33.60;40.70
62581;DHT22;48640;48.770;9.148;2023-09-07T12:36:24;33.40;42.00
62581;DHT22;48640;48.770;9.148;2023-09-07T12:38:55;33.80;40.30
62581;DHT22;48640;48.770;9.148;2023-09-07T12:41:26;33.80;40.50
62581;DHT22;48640;48.770;9.148;2023-09-07T12:43:53;33.40;40.80
62581;DHT22;48640;48.770;9.148;2023-09-07T12:46:20;33.20;40.80
62581;DHT22;48640;48.770;9.148;2023-09-07T12:48:48;33.00;41.50
62581;DHT22;48640;48.770;9.148;2023-09-07T12:51:15;33.10;41.10
62581;DHT22;48640;48.770;9.148;2023-09-07T12:53:42;33.00;41.10
62581;DHT22;48640;48.770;9.148;2023-09-07T12:56:09;32.60;41.50
62581;DHT22;48640;48.770;9.148;2023-09-07T12:58:36;32.30;44.10
62581;DHT22;48640;48.770;9.148;2023-09-07T13:01:03;32.20;43.60
62581;DHT22;48640;48.770;9.148;2023-09-07T13:03:30;32.20;42.00
62581;DHT22;48640;48.770;9.148;2023-09-07T13:05:58;32.00;42.90
62581;DHT22;48640;48.770;9.148;2023-09-07T13:08:25;32.00;44.50
62581;DHT22;48640;48.770;9.148;2023-09-07T13:10:53;32.00;43.40
62581;DHT22;48640;48.770;9.148;2023-09-07T13:13:20;32.10;43.20
62581;DHT22;48640;48.770;9.148;2023-09-07T13:15:47;32.10;43.10
62581;DHT22;48640;48.770;9.148;2023-09-07T13:18:15;32.20;43.50
62581;DHT22;48640;48.770;9.148;2023-09-07T13:20:41;32.20;42.60
62581;DHT22;48640;48.770;9.148;2023-09-07T13:23:12;32.20;42.90
62581;DHT22;48640;48.770;9.148;2023-09-07T13:25:39;32.10;42.60
62581;DHT22;48640;48.770;9.148;2023-09-07T13:28:06;31.80;42.90
62581;DHT22;48640;48.770;9.148;2023-09-07T13:30:33;31.20;43.40
62581;DHT22;48640;48.770;9.148;2023-09-07T13:32:59;31.00;44.70
62581;DHT22;48640;48.770;9.148;2023-09-07T13:35:26;31.10;44.30
62581;DHT22;48640;48.770;9.148;2023-09-07T13:37:53;31.00;44.50
62581;DHT22;48640;48.770;9.148;2023-09-07T13:40:22;30.90;45.60
62581;DHT22;48640;48.770;9.148;2023-09-07T13:42:49;31.00;45.40
62581;DHT22;48640;48.770;9.148;2023-09-07T13:45:16;31.10;45.10
62581;DHT22;48640;48.770;9.148;2023-09-07T13:47:43;31.00;43.80
62581;DHT22;48640;48.770;9.148;2023-09-07T13:50:10;30.70;44.90
62581;DHT22;48640;48.770;9.148;2023-09-07T13:52:37;30.60;45.10
62581;DHT22;48640;48.770;9.148;2023-09-07T13:55:05;30.60;45.50
62581;DHT22;48640;48.770;9.148;2023-09-07T13:57:33;30.50;45.40
62581;DHT22;48640;48.770;9.148;2023-09-07T14:00:01;30.50;45.70
62581;DHT22;48640;48.770;9.148;2023-09-07T14:02:28;30.60;46.60
62581;DHT22;48640;48.770;9.148;2023-09-07T14:04:56;30.70;45.30
62581;DHT22;48640;48.770;9.148;2023-09-07T14:07:23;30.70;45.90
62581;DHT22;48640;48.770;9.148;2023-09-07T14:09:51;30.60;44.80
62581;DHT22;48640;48.770;9.148;2023-09-07T14:12:18;30.40;45.50
62581;DHT22;48640;48.770;9.148;2023-09-07T14:14:46;30.40;45.60
62581;DHT22;48640;48.770;9.148;2023-09-07T14:17:13;30.20;46.40
62581;DHT22;48640;48.770;9.148;2023-09-07T14:19:39;29.70;46.60
62581;DHT22;48640;48.770;9.148;2023-09-07T14:22:06;29.60;47.20
62581;DHT22;48640;48.770;9.148;2023-09-07T14:24:33;29.50;48.10
62581;DHT22;48640;48.770;9.148;2023-09-07T14:27:00;29.40;47.30
62581;DHT22;48640;48.770;9.148;2023-09-07T14:29:27;29.30;48.00
62581;DHT22;48640;48.770;9.148;2023-09-07T14:31:56;29.30;48.30
62581;DHT22;48640;48.770;9.148;2023-09-07T14:34:23;29.30;47.60
62581;DHT22;48640;48.770;9.148;2023-09-07T14:36:50;29.20;48.00
62581;DHT22;48640;48.770;9.148;2023-09-07T14:39:17;29.10;48.20
62581;DHT22;48640;48.770;9.148;2023-09-07T14:41:49;29.00;48.90
62581;DHT22;48640;48.770;9.148;2023-09-07T14:44:16;28.90;49.40
62581;DHT22;48640;48.770;9.148;2023-09-07T14:46:42;28.80;49.30
62581;DHT22;48640;48.770;9.148;2023-09-07T14:49:11;28.70;50.10
62581;DHT22;48640;48.770;9.148;2023-09-07T14:51:38;28.60;50.10
62581;DHT22;48640;48.770;9.148;2023-09-07T14:54:05;28.60;49.90
62581;DHT22;48640;48.770;9.148;2023-09-07T14:56:32;28.50;50.60
62581;DHT22;48640;48.770;9.148;2023-09-07T14:59:00;28.50;50.00
62581;DHT22;48640;48.770;9.148;2023-09-07T15:01:27;28.50;50.60
62581;DHT22;48640;48.770;9.148;2023-09-07T15:03:54;28.40;50.00
62581;DHT22;48640;48.770;9.148;2023-09-07T15:06:22;28.40;50.20
62581;DHT22;48640;48.770;9.148;2023-09-07T15:08:49;28.50;50.70
62581;DHT22;48640;48.770;9.148;2023-09-07T15:11:16;28.40;50.30
62581;DHT22;48640;48.770;9.148;2023-09-07T15:13:44;28.40;50.10
62581;DHT22;48640;48.770;9.148;2023-09-07T15:16:12;28.40;49.60
62581;DHT22;48640;48.770;9.148;2023-09-07T15:18:39;28.30;50.20
62581;DHT22;48640;48.770;9.148;2023-09-07T15:21:05;28.30;50.60
62581;DHT22;48640;48.770;9.148;2023-09-07T15:23:34;28.30;50.50
62581;DHT22;48640;48.770;9.148;2023-09-07T15:26:01;28.30;50.40
62581;DHT22;48640;48.770;9.148;2023-09-07T15:28:29;28.30;50.50
62581;DHT22;48640;48.770;9.148;2023-09-07T15:30:56;28.30;50.40
62581;DHT22;48640;48.770;9.148;2023-09-07T15:33:23;28.30;50.60